sensor_id;sensor_type;location;lat;lon;timestamp;temperature;humidity
6986;DHT22;3533;51.246;6.850;2022-10-17T00:01:06;21.90;46.30
6986;DHT22;3533;51.246;6.850;2022-10-17T00:03:33;21.90;46.30
6986;DHT22;3533;51.246;6.850;2022-10-17T00:06:02;21.90;46.30
6986;DHT22;3533;51.246;6.850;2022-10-17T00:08:28;21.90;46.30
6986;DHT22;3533;51.246;6.850;2022-10-17T00:11:02;21.90;46.30
6986;DHT22;3533;51.246;6.850;2022-10-17T00:13:29;21.90;46.30
6986;DHT22;3533;51.246;6.850;2022-10-17T00:15:55;21.90;46.30
6986;DHT22;3533;51.246;6.850;2022-10-17T00:18:20;21.90;46.30
6986;DHT22;3533;51.246;6.850;2022-10-17T00:20:46;21.90;46.40
6986;DHT22;3533;51.246;6.850;2022-10-17T00:23:12;21.90;46.40
6986;DHT22;3533;51.246;6.850;2022-10-17T00:25:37;21.90;46.30
6986;DHT22;3533;51.246;6.850;2022-10-17T00:28:03;21.90;46.30
6986;DHT22;3533;51.246;6.850;2022-10-17T00:30:28;21.90;46.30
6986;DHT22;3533;51.246;6.850;2022-10-17T00:32:54;21.90;46.40
6986;DHT22;3533;51.246;6.850;2022-10-17T00:35:20;21.90;46.30
6986;DHT22;3533;51.246;6.850;2022-10-17T00:37:45;21.90;46.30
6986;DHT22;3533;51.246;6.850;2022-10-17T00:40:11;21.90;46.30
6986;DHT22;3533;51.246;6.850;2022-10-17T00:42:37;21.90;46.30
6986;DHT22;3533;51.246;6.850;2022-10-17T00:45:15;21.90;46.30
6986;DHT22;3533;51.246;6.850;2022-10-17T00:47:42;21.90;46.30
6986;DHT22;3533;51.246;6.850;2022-10-17T00:50:08;21.90;46.40
6986;DHT22;3533;51.246;6.850;2022-10-17T00:52:35;21.90;46.40
6986;DHT22;3533;51.246;6.850;2022-10-17T00:55:14;21.90;46.40
6986;DHT22;3533;51.246;6.850;2022-10-17T00:57:41;21.90;46.30
6986;DHT22;3533;51.246;6.850;2022-10-17T01:00:09;21.90;46.40
6986;DHT22;3533;51.246;6.850;2022-10-17T01:02:35;21.90;46.40
6986;DHT22;3533;51.246;6.850;2022-10-17T01:05:01;21.90;46.40
6986;DHT22;3533;51.246;6.850;2022-10-17T01:07:28;21.90;46.40
6986;DHT22;3533;51.246;6.850;2022-10-17T01:09:53;21.90;46.50
6986;DHT22;3533;51.246;6.850;2022-10-17T01:12:23;21.90;46.50
6986;DHT22;3533;51.246;6.850;2022-10-17T01:14:54;21.90;46.60
6986;DHT22;3533;51.246;6.850;2022-10-17T01:20:41;21.90;46.50
6986;DHT22;3533;51.246;6.850;2022-10-17T01:23:29;21.90;46.40
6986;DHT22;3533;51.246;6.850;2022-10-17T01:31:13;21.80;46.40
6986;DHT22;3533;51.246;6.850;2022-10-17T01:33:58;21.90;46.60
6986;DHT22;3533;51.246;6.850;2022-10-17T01:39:41;21.80;46.50
6986;DHT22;3533;51.246;6.850;2022-10-17T01:42:23;21.90;46.60
6986;DHT22;3533;51.246;6.850;2022-10-17T01:44:56;21.80;46.60
6986;DHT22;3533;51.246;6.850;2022-10-17T01:47:29;21.80;46.50
6986;DHT22;3533;51.246;6.850;2022-10-17T01:49:58;21.80;46.50
6986;DHT22;3533;51.246;6.850;2022-10-17T01:52:31;21.80;46.50
6986;DHT22;3533;51.246;6.850;2022-10-17T01:55:03;21.90;46.60
6986;DHT22;3533;51.246;6.850;2022-10-17T01:57:38;21.80;46.60
6986;DHT22;3533;51.246;6.850;2022-10-17T02:00:09;21.80;46.50
6986;DHT22;3533;51.246;6.850;2022-10-17T02:02:35;21.80;46.50
6986;DHT22;3533;51.246;6.850;2022-10-17T02:05:02;21.80;46.60
6986;DHT22;3533;51.246;6.850;2022-10-17T02:07:28;21.80;46.60
6986;DHT22;3533;51.246;6.850;2022-10-17T02:09:54;21.80;46.50
6986;DHT22;3533;51.246;6.850;2022-10-17T02:13:42;21.80;46.60
6986;DHT22;3533;51.246;6.850;2022-10-17T02:16:09;21.80;46.50
6986;DHT22;3533;51.246;6.850;2022-10-17T02:19:06;21.80;46.50
6986;DHT22;3533;51.246;6.850;2022-10-17T02:21:55;21.80;46.50
6986;DHT22;3533;51.246;6.850;2022-10-17T02:27:18;21.80;46.60
6986;DHT22;3533;51.246;6.850;2022-10-17T02:30:04;21.80;46.60
6986;DHT22;3533;51.246;6.850;2022-10-17T02:35:09;21.80;46.60
6986;DHT22;3533;51.246;6.850;2022-10-17T02:37:36;21.80;46.60
6986;DHT22;3533;51.246;6.850;2022-10-17T02:40:03;21.80;46.60
6986;DHT22;3533;51.246;6.850;2022-10-17T02:42:30;21.80;46.60
6986;DHT22;3533;51.246;6.850;2022-10-17T02:44:59;21.80;46.60
6986;DHT22;3533;51.246;6.850;2022-10-17T02:49:55;21.80;46.60
6986;DHT22;3533;51.246;6.850;2022-10-17T02:52:34;21.80;46.60
6986;DHT22;3533;51.246;6.850;2022-10-17T02:55:11;21.80;46.70
6986;DHT22;3533;51.246;6.850;2022-10-17T02:57:43;21.80;46.70
6986;DHT22;3533;51.246;6.850;2022-10-17T03:00:12;21.80;46.70
6986;DHT22;3533;51.246;6.850;2022-10-17T03:02:47;21.80;46.70
6986;DHT22;3533;51.246;6.850;2022-10-17T03:05:19;21.80;46.70
6986;DHT22;3533;51.246;6.850;2022-10-17T03:07:45;21.80;46.70
6986;DHT22;3533;51.246;6.850;2022-10-17T03:10:11;21.80;46.70
6986;DHT22;3533;51.246;6.850;2022-10-17T03:12:37;21.80;46.80
6986;DHT22;3533;51.246;6.850;2022-10-17T03:15:03;21.80;46.70
6986;DHT22;3533;51.246;6.850;2022-10-17T03:17:29;21.80;46.70
6986;DHT22;3533;51.246;6.850;2022-10-17T03:19:54;21.80;46.70
6986;DHT22;3533;51.246;6.850;2022-10-17T03:22:20;21.80;46.70
6986;DHT22;3533;51.246;6.850;2022-10-17T03:24:45;21.80;46.80
6986;DHT22;3533;51.246;6.850;2022-10-17T03:27:11;21.80;46.60
6986;DHT22;3533;51.246;6.850;2022-10-17T03:29:36;21.80;46.70
6986;DHT22;3533;51.246;6.850;2022-10-17T03:32:02;21.80;46.70
6986;DHT22;3533;51.246;6.850;2022-10-17T03:34:27;21.80;46.80
6986;DHT22;3533;51.246;6.850;2022-10-17T03:36:53;21.80;46.70
6986;DHT22;3533;51.246;6.850;2022-10-17T03:39:18;21.80;47.50
6986;DHT22;3533;51.246;6.850;2022-10-17T03:41:44;21.80;46.70
6986;DHT22;3533;51.246;6.850;2022-10-17T03:44:09;21.80;46.70
6986;DHT22;3533;51.246;6.850;2022-10-17T03:46:35;21.80;46.70
6986;DHT22;3533;51.246;6.850;2022-10-17T03:49:00;21.80;46.70
6986;DHT22;3533;51.246;6.850;2022-10-17T03:51:26;21.80;46.80
6986;DHT22;3533;51.246;6.850;2022-10-17T03:53:51;21.80;46.70
6986;DHT22;3533;51.246;6.850;2022-10-17T03:56:26;21.80;46.70
6986;DHT22;3533;51.246;6.850;2022-10-17T03:58:53;21.80;46.80
6986;DHT22;3533;51.246;6.850;2022-10-17T04:01:19;21.80;46.80
6986;DHT22;3533;51.246;6.850;2022-10-17T04:03:48;21.80;46.80
6986;DHT22;3533;51.246;6.850;2022-10-17T04:06:14;21.80;46.80
6986;DHT22;3533;51.246;6.850;2022-10-17T04:08:40;21.80;46.80
6986;DHT22;3533;51.246;6.850;2022-10-17T04:11:09;21.80;46.80
6986;DHT22;3533;51.246;6.850;2022-10-17T04:13:35;21.80;46.80
6986;DHT22;3533;51.246;6.850;2022-10-17T04:16:04;21.80;46.80
6986;DHT22;3533;51.246;6.850;2022-10-17T04:18:30;21.80;46.80
6986;DHT22;3533;51.246;6.850;2022-10-17T04:20:55;21.80;46.80
6986;DHT22;3533;51.246;6.850;2022-10-17T04:23:21;21.80;46.80
6986;DHT22;3533;51.246;6.850;2022-10-17T04:25:47;21.80;46.80
6986;DHT22;3533;51.246;6.850;2022-10-17T04:28:13;21.80;46.80
6986;DHT22;3533;51.246;6.850;2022-10-17T04:30:39;21.80;46.80
6986;DHT22;3533;51.246;6.850;2022-10-17T04:33:04;21.80;46.80
6986;DHT22;3533;51.246;6.850;2022-10-17T04:35:30;21.80;46.80
6986;DHT22;3533;51.246;6.850;2022-10-17T04:37:55;21.80;46.80
6986;DHT22;3533;51.246;6.850;2022-10-17T04:40:21;21.80;46.80
6986;DHT22;3533;51.246;6.850;2022-10-17T04:42:47;21.80;46.90
6986;DHT22;3533;51.246;6.850;2022-10-17T04:45:12;21.80;46.90
6986;DHT22;3533;51.246;6.850;2022-10-17T04:47:38;21.80;46.80
6986;DHT22;3533;51.246;6.850;2022-10-17T04:50:04;21.80;46.90
6986;DHT22;3533;51.246;6.850;2022-10-17T04:52:30;21.80;46.90
6986;DHT22;3533;51.246;6.850;2022-10-17T04:54:56;21.80;47.00
6986;DHT22;3533;51.246;6.850;2022-10-17T04:57:21;21.80;46.80
6986;DHT22;3533;51.246;6.850;2022-10-17T04:59:47;21.80;46.80
6986;DHT22;3533;51.246;6.850;2022-10-17T05:02:12;21.80;46.80
6986;DHT22;3533;51.246;6.850;2022-10-17T05:04:38;21.80;46.80
6986;DHT22;3533;51.246;6.850;2022-10-17T05:07:03;21.80;46.80
6986;DHT22;3533;51.246;6.850;2022-10-17T05:09:29;21.80;46.90
6986;DHT22;3533;51.246;6.850;2022-10-17T05:11:54;21.80;46.80
6986;DHT22;3533;51.246;6.850;2022-10-17T05:14:20;21.80;46.80
6986;DHT22;3533;51.246;6.850;2022-10-17T05:16:46;21.80;46.80
6986;DHT22;3533;51.246;6.850;2022-10-17T05:19:11;21.80;46.80
6986;DHT22;3533;51.246;6.850;2022-10-17T05:21:37;21.80;46.80
6986;DHT22;3533;51.246;6.850;2022-10-17T05:24:10;21.80;46.70
6986;DHT22;3533;51.246;6.850;2022-10-17T05:26:36;21.80;46.80
6986;DHT22;3533;51.246;6.850;2022-10-17T05:29:02;21.80;46.70
6986;DHT22;3533;51.246;6.850;2022-10-17T05:31:28;21.80;46.70
6986;DHT22;3533;51.246;6.850;2022-10-17T05:33:55;21.80;46.70
6986;DHT22;3533;51.246;6.850;2022-10-17T05:36:21;21.80;46.70
6986;DHT22;3533;51.246;6.850;2022-10-17T05:38:50;21.80;46.70
6986;DHT22;3533;51.246;6.850;2022-10-17T05:41:16;21.80;46.70
6986;DHT22;3533;51.246;6.850;2022-10-17T05:43:42;21.80;46.80
6986;DHT22;3533;51.246;6.850;2022-10-17T05:46:08;21.80;46.80
6986;DHT22;3533;51.246;6.850;2022-10-17T05:48:34;21.80;46.80
6986;DHT22;3533;51.246;6.850;2022-10-17T05:51:05;21.80;46.70
6986;DHT22;3533;51.246;6.850;2022-10-17T05:53:33;21.80;46.70
6986;DHT22;3533;51.246;6.850;2022-10-17T05:56:00;21.80;46.80
6986;DHT22;3533;51.246;6.850;2022-10-17T05:58:26;21.80;46.80
6986;DHT22;3533;51.246;6.850;2022-10-17T06:01:00;21.80;46.80
6986;DHT22;3533;51.246;6.850;2022-10-17T06:03:26;21.80;46.80
6986;DHT22;3533;51.246;6.850;2022-10-17T06:05:52;21.80;46.80
6986;DHT22;3533;51.246;6.850;2022-10-17T06:08:17;21.80;46.80
6986;DHT22;3533;51.246;6.850;2022-10-17T06:10:47;21.80;46.80
6986;DHT22;3533;51.246;6.850;2022-10-17T06:13:13;21.80;46.80
6986;DHT22;3533;51.246;6.850;2022-10-17T06:15:39;21.80;46.80
6986;DHT22;3533;51.246;6.850;2022-10-17T06:18:04;21.80;46.80
6986;DHT22;3533;51.246;6.850;2022-10-17T06:20:30;21.80;46.80
6986;DHT22;3533;51.246;6.850;2022-10-17T06:22:56;21.80;46.80
6986;DHT22;3533;51.246;6.850;2022-10-17T06:25:21;21.80;46.80
6986;DHT22;3533;51.246;6.850;2022-10-17T06:27:47;21.80;46.80
6986;DHT22;3533;51.246;6.850;2022-10-17T06:30:12;21.80;46.90
6986;DHT22;3533;51.246;6.850;2022-10-17T06:32:38;21.80;46.90
6986;DHT22;3533;51.246;6.850;2022-10-17T06:35:04;21.80;46.80
6986;DHT22;3533;51.246;6.850;2022-10-17T06:37:30;21.80;46.80
6986;DHT22;3533;51.246;6.850;2022-10-17T06:39:57;21.80;46.90
6986;DHT22;3533;51.246;6.850;2022-10-17T06:42:23;21.80;46.90
6986;DHT22;3533;51.246;6.850;2022-10-17T06:44:48;21.80;46.90
6986;DHT22;3533;51.246;6.850;2022-10-17T06:47:14;21.80;46.80
6986;DHT22;3533;51.246;6.850;2022-10-17T06:49:39;21.80;47.00
6986;DHT22;3533;51.246;6.850;2022-10-17T06:52:05;21.80;46.80
6986;DHT22;3533;51.246;6.850;2022-10-17T06:54:30;21.80;46.90
6986;DHT22;3533;51.246;6.850;2022-10-17T06:56:56;21.80;46.90
6986;DHT22;3533;51.246;6.850;2022-10-17T06:59:21;21.80;46.90
6986;DHT22;3533;51.246;6.850;2022-10-17T07:01:47;21.80;46.80
6986;DHT22;3533;51.246;6.850;2022-10-17T07:04:13;21.80;46.90
6986;DHT22;3533;51.246;6.850;2022-10-17T07:06:38;21.80;46.90
6986;DHT22;3533;51.246;6.850;2022-10-17T07:09:04;21.80;46.90
6986;DHT22;3533;51.246;6.850;2022-10-17T07:11:32;21.80;46.80
6986;DHT22;3533;51.246;6.850;2022-10-17T07:13:59;21.80;46.80
6986;DHT22;3533;51.246;6.850;2022-10-17T07:16:25;21.80;46.90
6986;DHT22;3533;51.246;6.850;2022-10-17T07:18:51;21.80;46.90
6986;DHT22;3533;51.246;6.850;2022-10-17T07:21:17;21.80;46.80
6986;DHT22;3533;51.246;6.850;2022-10-17T07:23:42;21.80;46.80
6986;DHT22;3533;51.246;6.850;2022-10-17T07:26:10;21.90;47.00
6986;DHT22;3533;51.246;6.850;2022-10-17T07:28:38;21.80;46.80
6986;DHT22;3533;51.246;6.850;2022-10-17T07:31:06;21.80;46.80
6986;DHT22;3533;51.246;6.850;2022-10-17T07:33:32;21.80;46.80
6986;DHT22;3533;51.246;6.850;2022-10-17T07:35:58;21.80;46.80
6986;DHT22;3533;51.246;6.850;2022-10-17T07:38:25;21.80;46.80
6986;DHT22;3533;51.246;6.850;2022-10-17T07:40:59;21.80;46.80
6986;DHT22;3533;51.246;6.850;2022-10-17T07:43:26;21.80;46.80
6986;DHT22;3533;51.246;6.850;2022-10-17T07:45:53;21.80;46.80
6986;DHT22;3533;51.246;6.850;2022-10-17T07:48:19;21.80;46.90
6986;DHT22;3533;51.246;6.850;2022-10-17T07:50:46;21.80;47.00
6986;DHT22;3533;51.246;6.850;2022-10-17T07:53:11;21.80;46.90
6986;DHT22;3533;51.246;6.850;2022-10-17T07:55:38;21.80;46.80
6986;DHT22;3533;51.246;6.850;2022-10-17T07:58:04;21.90;46.90
6986;DHT22;3533;51.246;6.850;2022-10-17T08:00:29;21.90;47.00
6986;DHT22;3533;51.246;6.850;2022-10-17T08:02:55;21.90;46.90
6986;DHT22;3533;51.246;6.850;2022-10-17T08:05:20;21.90;47.10
6986;DHT22;3533;51.246;6.850;2022-10-17T08:07:46;21.80;46.80
6986;DHT22;3533;51.246;6.850;2022-10-17T08:10:12;21.90;47.00
6986;DHT22;3533;51.246;6.850;2022-10-17T08:12:38;21.90;47.00
6986;DHT22;3533;51.246;6.850;2022-10-17T08:15:05;21.90;47.00
6986;DHT22;3533;51.246;6.850;2022-10-17T08:17:32;21.90;47.00
6986;DHT22;3533;51.246;6.850;2022-10-17T08:19:58;21.80;46.90
6986;DHT22;3533;51.246;6.850;2022-10-17T08:22:23;21.90;47.00
6986;DHT22;3533;51.246;6.850;2022-10-17T08:24:49;21.90;47.00
6986;DHT22;3533;51.246;6.850;2022-10-17T08:27:14;21.90;46.90
6986;DHT22;3533;51.246;6.850;2022-10-17T08:29:46;21.90;47.00
6986;DHT22;3533;51.246;6.850;2022-10-17T08:32:13;21.90;47.00
6986;DHT22;3533;51.246;6.850;2022-10-17T08:34:38;21.80;47.00
6986;DHT22;3533;51.246;6.850;2022-10-17T08:37:04;21.90;47.00
6986;DHT22;3533;51.246;6.850;2022-10-17T08:39:29;21.90;47.10
6986;DHT22;3533;51.246;6.850;2022-10-17T08:47:14;21.90;47.10
6986;DHT22;3533;51.246;6.850;2022-10-17T08:49:48;21.90;47.10
6986;DHT22;3533;51.246;6.850;2022-10-17T08:52:42;21.90;47.10
6986;DHT22;3533;51.246;6.850;2022-10-17T08:55:35;21.90;47.10
6986;DHT22;3533;51.246;6.850;2022-10-17T08:58:01;21.90;47.00
6986;DHT22;3533;51.246;6.850;2022-10-17T09:00:28;21.90;47.10
6986;DHT22;3533;51.246;6.850;2022-10-17T09:03:13;21.90;47.10
6986;DHT22;3533;51.246;6.850;2022-10-17T09:05:48;21.80;47.00
6986;DHT22;3533;51.246;6.850;2022-10-17T09:19:22;21.90;47.20
6986;DHT22;3533;51.246;6.850;2022-10-17T09:21:56;21.90;47.20
6986;DHT22;3533;51.246;6.850;2022-10-17T09:24:44;21.90;47.10
6986;DHT22;3533;51.246;6.850;2022-10-17T09:27:37;21.90;47.20
6986;DHT22;3533;51.246;6.850;2022-10-17T09:30:28;21.90;47.10
6986;DHT22;3533;51.246;6.850;2022-10-17T09:32:56;21.90;47.20
6986;DHT22;3533;51.246;6.850;2022-10-17T09:35:22;21.90;47.20
6986;DHT22;3533;51.246;6.850;2022-10-17T09:37:48;21.90;47.20
6986;DHT22;3533;51.246;6.850;2022-10-17T09:40:28;21.90;47.20
6986;DHT22;3533;51.246;6.850;2022-10-17T09:42:55;21.90;47.20
6986;DHT22;3533;51.246;6.850;2022-10-17T09:45:23;21.90;47.20
6986;DHT22;3533;51.246;6.850;2022-10-17T09:50:40;21.90;47.20
6986;DHT22;3533;51.246;6.850;2022-10-17T09:53:14;21.90;47.20
6986;DHT22;3533;51.246;6.850;2022-10-17T09:55:45;21.90;47.20
6986;DHT22;3533;51.246;6.850;2022-10-17T09:58:12;21.90;47.30
6986;DHT22;3533;51.246;6.850;2022-10-17T10:00:40;21.90;47.20
6986;DHT22;3533;51.246;6.850;2022-10-17T10:03:19;21.90;47.20
6986;DHT22;3533;51.246;6.850;2022-10-17T10:08:52;21.90;47.20
6986;DHT22;3533;51.246;6.850;2022-10-17T10:11:24;21.90;47.20
6986;DHT22;3533;51.246;6.850;2022-10-17T10:13:51;21.90;47.20
6986;DHT22;3533;51.246;6.850;2022-10-17T10:16:25;21.90;47.30
6986;DHT22;3533;51.246;6.850;2022-10-17T10:18:54;21.90;47.30
6986;DHT22;3533;51.246;6.850;2022-10-17T10:21:24;21.90;47.30
6986;DHT22;3533;51.246;6.850;2022-10-17T10:26:44;21.90;47.30
6986;DHT22;3533;51.246;6.850;2022-10-17T10:29:48;21.90;47.30
6986;DHT22;3533;51.246;6.850;2022-10-17T10:32:29;21.90;47.30
6986;DHT22;3533;51.246;6.850;2022-10-17T10:37:48;21.90;47.50
6986;DHT22;3533;51.246;6.850;2022-10-17T10:43:04;21.90;47.40
6986;DHT22;3533;51.246;6.850;2022-10-17T10:48:05;21.90;47.30
6986;DHT22;3533;51.246;6.850;2022-10-17T10:50:45;21.90;47.30
6986;DHT22;3533;51.246;6.850;2022-10-17T10:58:54;21.90;47.30
6986;DHT22;3533;51.246;6.850;2022-10-17T11:01:41;21.90;47.20
6986;DHT22;3533;51.246;6.850;2022-10-17T11:07:16;21.90;47.30
6986;DHT22;3533;51.246;6.850;2022-10-17T11:12:53;21.90;47.30
6986;DHT22;3533;51.246;6.850;2022-10-17T11:15:43;21.90;47.20
6986;DHT22;3533;51.246;6.850;2022-10-17T11:18:23;21.90;47.30
6986;DHT22;3533;51.246;6.850;2022-10-17T11:23:46;21.90;47.30
6986;DHT22;3533;51.246;6.850;2022-10-17T11:26:22;21.90;47.30
6986;DHT22;3533;51.246;6.850;2022-10-17T11:28:51;21.90;47.30
6986;DHT22;3533;51.246;6.850;2022-10-17T11:31:19;21.90;47.30
6986;DHT22;3533;51.246;6.850;2022-10-17T11:33:53;21.90;47.20
6986;DHT22;3533;51.246;6.850;2022-10-17T11:36:24;21.90;47.30
6986;DHT22;3533;51.246;6.850;2022-10-17T11:42:08;21.90;47.20
6986;DHT22;3533;51.246;6.850;2022-10-17T11:44:38;21.90;47.30
6986;DHT22;3533;51.246;6.850;2022-10-17T11:47:17;21.90;47.50
6986;DHT22;3533;51.246;6.850;2022-10-17T11:50:15;21.90;47.30
6986;DHT22;3533;51.246;6.850;2022-10-17T11:52:47;21.90;47.30
6986;DHT22;3533;51.246;6.850;2022-10-17T11:55:20;21.90;47.30
6986;DHT22;3533;51.246;6.850;2022-10-17T11:58:26;21.90;47.30
6986;DHT22;3533;51.246;6.850;2022-10-17T12:06:23;21.90;47.30
6986;DHT22;3533;51.246;6.850;2022-10-17T12:09:24;21.90;47.30
6986;DHT22;3533;51.246;6.850;2022-10-17T12:11:53;21.90;47.30
6986;DHT22;3533;51.246;6.850;2022-10-17T12:14:36;21.90;47.30
6986;DHT22;3533;51.246;6.850;2022-10-17T12:19:47;21.90;47.30
6986;DHT22;3533;51.246;6.850;2022-10-17T12:24:57;21.90;47.30
6986;DHT22;3533;51.246;6.850;2022-10-17T12:30:15;21.90;47.30
6986;DHT22;3533;51.246;6.850;2022-10-17T12:32:57;21.90;47.30
6986;DHT22;3533;51.246;6.850;2022-10-17T12:35:25;21.90;47.30
6986;DHT22;3533;51.246;6.850;2022-10-17T12:43:01;21.90;47.30
6986;DHT22;3533;51.246;6.850;2022-10-17T12:45:46;21.90;47.30
6986;DHT22;3533;51.246;6.850;2022-10-17T12:48:46;21.90;47.30
6986;DHT22;3533;51.246;6.850;2022-10-17T12:51:20;21.90;47.40
6986;DHT22;3533;51.246;6.850;2022-10-17T12:56:34;21.90;47.30
6986;DHT22;3533;51.246;6.850;2022-10-17T12:59:06;21.90;47.30
6986;DHT22;3533;51.246;6.850;2022-10-17T13:01:33;21.90;47.30
6986;DHT22;3533;51.246;6.850;2022-10-17T13:04:01;21.90;47.40
6986;DHT22;3533;51.246;6.850;2022-10-17T13:06:31;21.90;47.40
6986;DHT22;3533;51.246;6.850;2022-10-17T13:09:08;21.90;47.40
6986;DHT22;3533;51.246;6.850;2022-10-17T13:11:39;21.90;47.30
6986;DHT22;3533;51.246;6.850;2022-10-17T13:14:12;21.90;47.40
6986;DHT22;3533;51.246;6.850;2022-10-17T13:16:50;21.90;47.50
6986;DHT22;3533;51.246;6.850;2022-10-17T13:19:18;21.90;47.30
6986;DHT22;3533;51.246;6.850;2022-10-17T13:21:59;21.90;47.30
6986;DHT22;3533;51.246;6.850;2022-10-17T13:24:30;21.90;47.40
6986;DHT22;3533;51.246;6.850;2022-10-17T13:26:56;21.90;47.40
6986;DHT22;3533;51.246;6.850;2022-10-17T13:29:23;21.90;47.40
6986;DHT22;3533;51.246;6.850;2022-10-17T13:32:03;21.90;47.40
6986;DHT22;3533;51.246;6.850;2022-10-17T13:34:31;21.90;47.40
6986;DHT22;3533;51.246;6.850;2022-10-17T13:37:03;21.90;47.40
6986;DHT22;3533;51.246;6.850;2022-10-17T13:39:38;21.90;47.40
6986;DHT22;3533;51.246;6.850;2022-10-17T13:42:04;21.90;47.50
6986;DHT22;3533;51.246;6.850;2022-10-17T13:44:34;21.90;47.40
6986;DHT22;3533;51.246;6.850;2022-10-17T13:47:00;21.90;47.50
6986;DHT22;3533;51.246;6.850;2022-10-17T13:49:33;21.90;47.50
6986;DHT22;3533;51.246;6.850;2022-10-17T13:52:02;21.90;47.50
6986;DHT22;3533;51.246;6.850;2022-10-17T13:54:33;21.90;47.50
6986;DHT22;3533;51.246;6.850;2022-10-17T13:57:00;21.90;47.50
6986;DHT22;3533;51.246;6.850;2022-10-17T13:59:37;21.90;47.50
6986;DHT22;3533;51.246;6.850;2022-10-17T14:02:04;21.90;47.50
6986;DHT22;3533;51.246;6.850;2022-10-17T14:04:37;21.90;47.50
6986;DHT22;3533;51.246;6.850;2022-10-17T14:07:03;21.90;47.50
6986;DHT22;3533;51.246;6.850;2022-10-17T14:09:30;21.90;47.60
6986;DHT22;3533;51.246;6.850;2022-10-17T14:12:10;21.90;47.60
6986;DHT22;3533;51.246;6.850;2022-10-17T14:14:46;22.00;47.70
6986;DHT22;3533;51.246;6.850;2022-10-17T14:17:25;22.00;47.80
6986;DHT22;3533;51.246;6.850;2022-10-17T14:20:02;22.00;47.70
6986;DHT22;3533;51.246;6.850;2022-10-17T14:22:32;22.00;47.80
6986;DHT22;3533;51.246;6.850;2022-10-17T14:24:57;22.00;47.80
6986;DHT22;3533;51.246;6.850;2022-10-17T14:30:03;22.00;47.90
6986;DHT22;3533;51.246;6.850;2022-10-17T14:32:31;21.90;47.90
6986;DHT22;3533;51.246;6.850;2022-10-17T14:34:59;22.00;48.00
6986;DHT22;3533;51.246;6.850;2022-10-17T14:37:32;22.00;48.80
6986;DHT22;3533;51.246;6.850;2022-10-17T14:40:00;22.00;48.00
6986;DHT22;3533;51.246;6.850;2022-10-17T14:42:26;22.00;48.00
6986;DHT22;3533;51.246;6.850;2022-10-17T14:44:53;22.00;48.10
6986;DHT22;3533;51.246;6.850;2022-10-17T14:47:25;22.00;48.00
6986;DHT22;3533;51.246;6.850;2022-10-17T14:50:04;22.00;48.10
6986;DHT22;3533;51.246;6.850;2022-10-17T14:52:31;22.00;48.10
6986;DHT22;3533;51.246;6.850;2022-10-17T14:54:57;22.00;48.30
6986;DHT22;3533;51.246;6.850;2022-10-17T14:57:41;22.00;48.30
6986;DHT22;3533;51.246;6.850;2022-10-17T15:00:12;22.00;48.30
6986;DHT22;3533;51.246;6.850;2022-10-17T15:02:38;22.00;48.40
6986;DHT22;3533;51.246;6.850;2022-10-17T15:05:04;22.10;48.50
6986;DHT22;3533;51.246;6.850;2022-10-17T15:07:29;22.10;48.50
6986;DHT22;3533;51.246;6.850;2022-10-17T15:09:55;22.10;48.60
6986;DHT22;3533;51.246;6.850;2022-10-17T15:12:23;22.10;48.60
6986;DHT22;3533;51.246;6.850;2022-10-17T15:14:49;22.10;48.70
6986;DHT22;3533;51.246;6.850;2022-10-17T15:17:29;22.10;48.70
6986;DHT22;3533;51.246;6.850;2022-10-17T15:19:56;22.10;48.70
6986;DHT22;3533;51.246;6.850;2022-10-17T15:22:22;22.00;48.70
6986;DHT22;3533;51.246;6.850;2022-10-17T15:24:48;22.00;48.80
6986;DHT22;3533;51.246;6.850;2022-10-17T15:27:21;22.00;48.80
6986;DHT22;3533;51.246;6.850;2022-10-17T15:29:47;22.00;48.80
6986;DHT22;3533;51.246;6.850;2022-10-17T15:32:14;22.00;48.90
6986;DHT22;3533;51.246;6.850;2022-10-17T15:34:39;22.00;48.90
6986;DHT22;3533;51.246;6.850;2022-10-17T15:37:06;22.00;49.00
6986;DHT22;3533;51.246;6.850;2022-10-17T15:39:38;22.00;48.90
6986;DHT22;3533;51.246;6.850;2022-10-17T15:42:08;22.00;48.90
6986;DHT22;3533;51.246;6.850;2022-10-17T15:44:35;22.00;48.90
6986;DHT22;3533;51.246;6.850;2022-10-17T15:47:01;22.00;48.90
6986;DHT22;3533;51.246;6.850;2022-10-17T15:49:27;22.00;48.90
6986;DHT22;3533;51.246;6.850;2022-10-17T15:51:52;22.00;48.90
6986;DHT22;3533;51.246;6.850;2022-10-17T15:54:18;22.00;48.90
6986;DHT22;3533;51.246;6.850;2022-10-17T15:56:47;22.00;48.90
6986;DHT22;3533;51.246;6.850;2022-10-17T15:59:17;22.00;48.80
6986;DHT22;3533;51.246;6.850;2022-10-17T16:01:44;22.00;48.90
6986;DHT22;3533;51.246;6.850;2022-10-17T16:04:13;22.00;48.80
6986;DHT22;3533;51.246;6.850;2022-10-17T16:06:41;22.00;48.80
6986;DHT22;3533;51.246;6.850;2022-10-17T16:09:07;22.00;48.80
6986;DHT22;3533;51.246;6.850;2022-10-17T16:11:39;22.00;48.80
6986;DHT22;3533;51.246;6.850;2022-10-17T16:14:13;22.00;48.80
6986;DHT22;3533;51.246;6.850;2022-10-17T16:16:39;22.00;48.70
6986;DHT22;3533;51.246;6.850;2022-10-17T16:19:05;22.00;48.70
6986;DHT22;3533;51.246;6.850;2022-10-17T16:21:33;22.10;48.70
6986;DHT22;3533;51.246;6.850;2022-10-17T16:23:59;22.10;48.60
6986;DHT22;3533;51.246;6.850;2022-10-17T16:26:26;22.10;48.50
6986;DHT22;3533;51.246;6.850;2022-10-17T16:28:51;22.10;48.40
6986;DHT22;3533;51.246;6.850;2022-10-17T16:31:20;22.20;48.50
6986;DHT22;3533;51.246;6.850;2022-10-17T16:33:48;22.20;48.40
6986;DHT22;3533;51.246;6.850;2022-10-17T16:36:14;22.20;48.30
6986;DHT22;3533;51.246;6.850;2022-10-17T16:38:39;22.20;48.30
6986;DHT22;3533;51.246;6.850;2022-10-17T16:41:20;22.20;48.30
6986;DHT22;3533;51.246;6.850;2022-10-17T16:43:48;22.20;48.30
6986;DHT22;3533;51.246;6.850;2022-10-17T16:46:14;22.20;48.20
6986;DHT22;3533;51.246;6.850;2022-10-17T16:48:41;22.20;48.20
6986;DHT22;3533;51.246;6.850;2022-10-17T16:51:07;22.20;48.20
6986;DHT22;3533;51.246;6.850;2022-10-17T16:53:32;22.20;48.20
6986;DHT22;3533;51.246;6.850;2022-10-17T16:56:02;22.20;48.20
6986;DHT22;3533;51.246;6.850;2022-10-17T16:58:28;22.20;48.10
6986;DHT22;3533;51.246;6.850;2022-10-17T17:01:00;22.20;48.20
6986;DHT22;3533;51.246;6.850;2022-10-17T17:03:26;22.20;48.20
6986;DHT22;3533;51.246;6.850;2022-10-17T17:05:51;22.20;48.20
6986;DHT22;3533;51.246;6.850;2022-10-17T17:08:17;22.20;48.20
6986;DHT22;3533;51.246;6.850;2022-10-17T17:10:46;22.20;48.20
6986;DHT22;3533;51.246;6.850;2022-10-17T17:13:14;22.20;48.20
6986;DHT22;3533;51.246;6.850;2022-10-17T17:15:40;22.20;49.00
6986;DHT22;3533;51.246;6.850;2022-10-17T17:18:05;22.20;48.20
6986;DHT22;3533;51.246;6.850;2022-10-17T17:20:32;22.20;48.20
6986;DHT22;3533;51.246;6.850;2022-10-17T17:22:57;22.20;48.20
6986;DHT22;3533;51.246;6.850;2022-10-17T17:25:23;22.20;48.20
6986;DHT22;3533;51.246;6.850;2022-10-17T17:27:49;22.20;48.20
6986;DHT22;3533;51.246;6.850;2022-10-17T17:30:15;22.20;48.30
6986;DHT22;3533;51.246;6.850;2022-10-17T17:32:40;22.20;48.20
6986;DHT22;3533;51.246;6.850;2022-10-17T17:35:06;22.20;48.30
6986;DHT22;3533;51.246;6.850;2022-10-17T17:37:32;22.20;48.30
6986;DHT22;3533;51.246;6.850;2022-10-17T17:39:57;22.20;48.40
6986;DHT22;3533;51.246;6.850;2022-10-17T17:42:23;22.20;48.30
6986;DHT22;3533;51.246;6.850;2022-10-17T17:44:48;22.20;48.30
6986;DHT22;3533;51.246;6.850;2022-10-17T17:47:14;22.20;48.30
6986;DHT22;3533;51.246;6.850;2022-10-17T17:49:40;22.20;48.30
6986;DHT22;3533;51.246;6.850;2022-10-17T17:52:05;22.20;48.40